Time;durP1;ratioP1;P1;durP2;ratioP2;P2;SDS_P1;SDS_P2;PMS_P1;PMS_P2;Temp;Humidity;BMP_temperature;BMP_pressure;BME280_temperature;BME280_humidity;BME280_pressure;Samples;Min_cycle;Max_cycle;Signal;HPM_P1;HPM_P2
2021/08/14 00:00:24;;;;;;;16.25;11.27;;;21.20;99.90;;;;;;4948137;28;20058;-68
2021/08/14 00:02:52;;;;;;;17.50;11.80;;;21.20;99.90;;;;;;4930485;28;20082;-68
2021/08/14 00:05:20;;;;;;;16.70;11.02;;;21.10;99.90;;;;;;4932170;28;20032;-68
2021/08/14 00:07:47;;;;;;;17.60;10.77;;;21.10;99.90;;;;;;4939467;28;20561;-69
2021/08/14 00:10:14;;;;;;;17.67;10.77;;;21.10;99.90;;;;;;4952798;28;20151;-68
2021/08/14 00:12:42;;;;;;;17.55;10.60;;;21.10;99.90;;;;;;4949341;28;20047;-67
2021/08/14 00:15:10;;;;;;;15.65;10.23;;;21.10;99.90;;;;;;4954052;28;20042;-68
2021/08/14 00:17:38;;;;;;;16.42;11.07;;;21.00;99.90;;;;;;4918673;29;20051;-68
2021/08/14 00:20:06;;;;;;;14.98;10.40;;;20.90;99.90;;;;;;4935490;29;20039;-68
2021/08/14 00:22:34;;;;;;;21.33;11.40;;;20.80;99.90;;;;;;4947192;28;20048;-68
2021/08/14 00:25:01;;;;;;;15.95;10.77;;;20.80;99.90;;;;;;4946266;28;20047;-68
2021/08/14 00:27:28;;;;;;;16.67;11.57;;;20.70;99.90;;;;;;4934713;29;20409;-68
2021/08/14 00:29:55;;;;;;;17.67;11.32;;;20.70;99.90;;;;;;4951786;28;20051;-68
2021/08/14 00:32:23;;;;;;;14.45;10.93;;;20.70;99.90;;;;;;4934941;28;20039;-68
2021/08/14 00:34:50;;;;;;;15.45;11.80;;;20.60;99.90;;;;;;4944378;28;20052;-68
2021/08/14 00:37:17;;;;;;;15.23;10.63;;;20.60;99.90;;;;;;4949838;28;20065;-68
2021/08/14 00:39:44;;;;;;;13.68;10.75;;;20.60;99.90;;;;;;4951784;28;20054;-68
2021/08/14 00:42:12;;;;;;;18.02;11.77;;;20.50;99.90;;;;;;4954211;28;20046;-68
2021/08/14 00:44:39;;;;;;;17.33;10.50;;;20.50;99.90;;;;;;4947145;28;20402;-68
2021/08/14 00:47:07;;;;;;;15.02;10.75;;;20.50;99.90;;;;;;4948591;28;20498;-68
2021/08/14 00:49:34;;;;;;;14.85;10.35;;;20.50;99.90;;;;;;4934885;28;20036;-68
2021/08/14 00:52:02;;;;;;;12.85;10.30;;;20.50;99.90;;;;;;4954371;28;20043;-68
2021/08/14 00:54:29;;;;;;;13.95;10.95;;;20.50;99.90;;;;;;4955155;28;20239;-68
2021/08/14 00:56:58;;;;;;;15.77;10.23;;;20.50;99.90;;;;;;4955095;28;20050;-68
2021/08/14 00:59:28;;;;;;;13.60;10.15;;;20.40;99.90;;;;;;4955159;28;20040;-68
2021/08/14 01:01:59;;;;;;;14.48;10.57;;;20.40;99.90;;;;;;4938839;28;20047;-68
2021/08/14 01:04:28;;;;;;;15.05;10.65;;;20.40;99.90;;;;;;4955028;28;20043;-68
2021/08/14 01:06:56;;;;;;;17.65;11.43;;;20.30;99.90;;;;;;4956418;28;20521;-69
2021/08/14 01:09:25;;;;;;;15.30;10.38;;;20.30;99.90;;;;;;4962516;28;20047;-68
2021/08/14 01:11:53;;;;;;;14.30;10.35;;;20.30;99.90;;;;;;4946967;28;20035;-69
2021/08/14 01:14:20;;;;;;;15.95;11.43;;;20.30;99.90;;;;;;4954745;28;20122;-69
2021/08/14 01:16:47;;;;;;;14.95;11.05;;;20.20;99.90;;;;;;4937586;29;20062;-68
2021/08/14 01:19:16;;;;;;;15.13;11.40;;;20.20;99.90;;;;;;4951081;28;20054;-68
2021/08/14 01:21:48;;;;;;;13.38;10.35;;;20.20;99.90;;;;;;4967461;28;20498;-68
2021/08/14 01:24:15;;;;;;;14.57;10.70;;;20.20;99.90;;;;;;4953388;28;20054;-69
2021/08/14 01:26:46;;;;;;;14.38;10.23;;;20.10;99.90;;;;;;4963742;28;20047;-68
2021/08/14 01:29:14;;;;;;;16.15;10.85;;;20.10;99.90;;;;;;4944893;28;20126;-68
2021/08/14 01:31:42;;;;;;;14.88;10.13;;;20.10;99.90;;;;;;4955264;28;20406;-68
2021/08/14 01:34:11;;;;;;;14.73;10.63;;;20.10;99.90;;;;;;4954910;28;20050;-68
2021/08/14 01:36:38;;;;;;;16.60;12.43;;;20.10;99.90;;;;;;4954992;28;20047;-69
2021/08/14 01:39:05;;;;;;;16.15;11.25;;;20.10;99.90;;;;;;4951795;28;20569;-68
2021/08/14 01:41:33;;;;;;;19.80;11.88;;;20.00;99.90;;;;;;4936733;29;20058;-68
2021/08/14 01:44:07;;;;;;;15.32;10.95;;;20.00;99.90;;;;;;4954701;28;20051;-68
2021/08/14 01:46:41;;;;;;;15.63;11.88;;;20.00;99.90;;;;;;4953714;28;20039;-68
2021/08/14 01:49:09;;;;;;;18.23;11.95;;;20.00;99.90;;;;;;4964017;28;20035;-69
2021/08/14 01:51:36;;;;;;;19.42;12.40;;;20.00;99.90;;;;;;4953408;28;20050;-68
2021/08/14 01:54:04;;;;;;;17.55;11.90;;;19.90;99.90;;;;;;4941996;29;20043;-68
2021/08/14 01:56:32;;;;;;;17.10;12.27;;;19.90;99.90;;;;;;4935580;29;20051;-68
2021/08/14 01:59:01;;;;;;;16.52;11.75;;;19.80;99.90;;;;;;4953136;28;20043;-68
2021/08/14 02:01:29;;;;;;;17.80;12.35;;;19.80;99.90;;;;;;4935808;29;20109;-68
2021/08/14 02:03:56;;;;;;;17.17;12.50;;;19.70;99.90;;;;;;4935872;28;20047;-68
2021/08/14 02:06:26;;;;;;;18.92;12.20;;;19.80;99.90;;;;;;4955678;28;20143;-68
2021/08/14 02:08:55;;;;;;;18.63;11.30;;;19.70;99.90;;;;;;4921019;29;20503;-68
2021/08/14 02:11:28;;;;;;;19.02;12.05;;;19.70;99.90;;;;;;4941345;28;20103;-68
2021/08/14 02:13:56;;;;;;;18.30;11.93;;;19.70;99.90;;;;;;4961776;28;20430;-68
2021/08/14 02:16:25;;;;;;;17.48;13.00;;;19.60;99.90;;;;;;4952605;28;20043;-68
2021/08/14 02:18:52;;;;;;;13.82;10.70;;;19.60;99.90;;;;;;4936417;29;20044;-68
2021/08/14 02:21:20;;;;;;;15.38;12.30;;;19.60;99.90;;;;;;4952825;28;20047;-68
2021/08/14 02:23:47;;;;;;;15.48;11.48;;;19.60;99.90;;;;;;4950812;28;20433;-68
2021/08/14 02:26:14;;;;;;;16.88;11.63;;;19.60;99.90;;;;;;4951251;28;20410;-68
2021/08/14 02:28:42;;;;;;;15.63;11.88;;;19.50;99.90;;;;;;4953563;28;20398;-68
2021/08/14 02:31:09;;;;;;;15.20;11.48;;;19.60;99.90;;;;;;4952838;28;20054;-69
2021/08/14 02:33:36;;;;;;;18.60;11.68;;;19.50;99.90;;;;;;4935969;28;20043;-68
2021/08/14 02:36:05;;;;;;;16.73;12.35;;;19.50;99.90;;;;;;4953130;28;20046;-68
2021/08/14 02:38:34;;;;;;;18.40;11.95;;;19.50;99.90;;;;;;4953350;28;20059;-68
2021/08/14 02:41:02;;;;;;;18.00;11.77;;;19.50;99.90;;;;;;4957562;28;20047;-68
2021/08/14 02:43:34;;;;;;;15.48;11.05;;;19.40;99.90;;;;;;4933560;28;20134;-68
2021/08/14 02:46:02;;;;;;;17.35;11.52;;;19.40;99.90;;;;;;4943114;28;20090;-68
2021/08/14 02:48:30;;;;;;;17.10;12.35;;;19.40;99.90;;;;;;4957792;28;20043;-68
2021/08/14 02:50:57;;;;;;;15.27;12.15;;;19.40;99.90;;;;;;4952992;28;20043;-68
2021/08/14 02:53:25;;;;;;;14.88;11.52;;;19.30;99.90;;;;;;4952707;28;20418;-68
2021/08/14 02:55:52;;;;;;;16.83;12.35;;;19.30;99.90;;;;;;4953499;28;20043;-68
2021/08/14 02:58:20;;;;;;;14.40;11.82;;;19.30;99.90;;;;;;4950296;28;20058;-68
2021/08/14 03:00:48;;;;;;;17.17;11.80;;;19.30;99.90;;;;;;4963190;28;20062;-68
2021/08/14 03:03:15;;;;;;;16.77;11.77;;;19.20;99.90;;;;;;4948543;28;20043;-68
2021/08/14 03:05:43;;;;;;;16.02;11.73;;;19.20;99.90;;;;;;4961860;28;20038;-68
2021/08/14 03:08:10;;;;;;;16.58;11.68;;;19.20;99.90;;;;;;4953780;28;20046;-68
2021/08/14 03:10:39;;;;;;;17.17;11.75;;;19.20;99.90;;;;;;4953633;28;20146;-68
2021/08/14 03:13:08;;;;;;;18.90;12.80;;;19.10;99.90;;;;;;4951217;28;20406;-68
2021/08/14 03:15:36;;;;;;;16.40;11.25;;;19.10;99.90;;;;;;4953533;28;20391;-68
2021/08/14 03:18:04;;;;;;;18.40;12.45;;;19.10;99.90;;;;;;4951143;28;20058;-68
2021/08/14 03:20:32;;;;;;;17.17;12.68;;;19.10;99.90;;;;;;4953352;28;20613;-68
2021/08/14 03:23:00;;;;;;;15.80;11.98;;;19.00;99.90;;;;;;4951852;28;20628;-68
2021/08/14 03:25:27;;;;;;;15.00;12.05;;;19.00;99.90;;;;;;4939896;28;20035;-68
2021/08/14 03:27:55;;;;;;;14.07;11.90;;;19.00;99.90;;;;;;4952323;28;20085;-68
2021/08/14 03:30:22;;;;;;;15.77;12.10;;;19.00;99.90;;;;;;4953598;28;20075;-68
2021/08/14 03:32:50;;;;;;;18.50;12.77;;;18.90;99.90;;;;;;4935695;29;20053;-68
2021/08/14 03:35:17;;;;;;;15.00;11.80;;;18.90;99.90;;;;;;4953154;28;20053;-68
2021/08/14 03:37:45;;;;;;;15.32;11.38;;;18.90;99.90;;;;;;4951451;28;20070;-68
2021/08/14 03:40:13;;;;;;;17.33;11.70;;;18.90;99.90;;;;;;4923993;28;20050;-68
2021/08/14 03:42:40;;;;;;;15.30;11.32;;;18.90;99.90;;;;;;4963462;28;20073;-68
2021/08/14 03:45:08;;;;;;;16.23;12.63;;;18.90;99.90;;;;;;4935067;29;20047;-68
2021/08/14 03:47:36;;;;;;;15.93;12.23;;;18.90;99.90;;;;;;4934636;29;20038;-68
2021/08/14 03:50:06;;;;;;;17.13;12.20;;;18.90;99.90;;;;;;4953258;28;20043;-68
2021/08/14 03:52:34;;;;;;;17.48;12.35;;;18.80;99.90;;;;;;4935438;28;20052;-68
2021/08/14 03:55:02;;;;;;;16.00;11.93;;;18.80;99.90;;;;;;4963709;28;20528;-68
2021/08/14 03:57:30;;;;;;;16.50;12.55;;;18.80;99.90;;;;;;4949235;28;20422;-68
2021/08/14 03:59:57;;;;;;;17.35;12.68;;;18.80;99.90;;;;;;4952285;28;20047;-68
2021/08/14 04:02:25;;;;;;;15.00;11.85;;;18.70;99.90;;;;;;4950402;28;20039;-68
2021/08/14 04:04:53;;;;;;;17.70;13.07;;;18.70;99.90;;;;;;4940734;28;20119;-68
2021/08/14 04:07:20;;;;;;;16.70;12.27;;;18.70;99.90;;;;;;4959524;28;20406;-68
2021/08/14 04:09:47;;;;;;;16.92;11.98;;;18.70;99.90;;;;;;4950194;28;20067;-68
2021/08/14 04:12:14;;;;;;;19.75;12.68;;;18.70;99.90;;;;;;4951374;28;20046;-68
2021/08/14 04:14:42;;;;;;;15.05;12.07;;;18.70;99.90;;;;;;4950286;28;20410;-69
2021/08/14 04:17:28;;;;;;;16.88;11.05;;;18.70;99.90;;;;;;4942962;28;20071;-68
2021/08/14 04:19:55;;;;;;;15.45;11.70;;;18.70;99.90;;;;;;4938563;28;20127;-68
2021/08/14 04:22:23;;;;;;;16.02;12.15;;;18.70;99.90;;;;;;4941726;28;20059;-68
2021/08/14 04:24:50;;;;;;;16.35;11.77;;;18.70;99.90;;;;;;4950419;28;20058;-68
2021/08/14 04:27:17;;;;;;;14.73;11.77;;;18.80;99.90;;;;;;4955430;28;20079;-68
2021/08/14 04:29:45;;;;;;;16.23;12.23;;;18.80;99.90;;;;;;4956874;28;20043;-68
2021/08/14 04:32:12;;;;;;;15.63;11.73;;;18.90;99.90;;;;;;4954730;28;20047;-68
2021/08/14 04:34:39;;;;;;;17.15;12.50;;;18.90;99.90;;;;;;4939176;29;20035;-68
2021/08/14 04:37:07;;;;;;;15.63;12.45;;;18.90;99.90;;;;;;4954486;28;20054;-68
2021/08/14 04:39:34;;;;;;;17.58;12.20;;;18.90;99.90;;;;;;4957426;28;20535;-68
2021/08/14 04:42:02;;;;;;;15.88;11.77;;;18.90;99.90;;;;;;4957592;28;20071;-68
2021/08/14 04:44:29;;;;;;;17.90;12.20;;;19.00;99.90;;;;;;4953971;28;20047;-69
2021/08/14 04:46:59;;;;;;;15.30;11.95;;;19.00;99.90;;;;;;4960445;28;20050;-68
2021/08/14 04:49:27;;;;;;;19.40;12.50;;;19.10;99.90;;;;;;4954534;28;20051;-68
2021/08/14 04:51:54;;;;;;;16.63;13.00;;;19.10;99.90;;;;;;4954092;28;20047;-68
2021/08/14 04:54:21;;;;;;;18.63;12.15;;;19.20;99.90;;;;;;4937812;28;20050;-68
2021/08/14 04:56:48;;;;;;;14.15;11.38;;;19.20;99.90;;;;;;4929570;29;20138;-68
2021/08/14 04:59:16;;;;;;;17.48;11.95;;;19.20;99.90;;;;;;4959235;28;20094;-68
2021/08/14 05:01:43;;;;;;;19.00;12.30;;;19.30;99.90;;;;;;4953771;28;20051;-68
2021/08/14 05:04:10;;;;;;;16.70;11.80;;;19.40;99.90;;;;;;4938778;29;20487;-68
2021/08/14 05:06:39;;;;;;;15.48;12.10;;;19.40;99.90;;;;;;4959623;28;20038;-68
2021/08/14 05:09:06;;;;;;;15.35;11.10;;;19.40;99.90;;;;;;4960741;28;20047;-68
2021/08/14 05:11:33;;;;;;;14.25;11.38;;;19.50;99.90;;;;;;4938203;28;20047;-68
2021/08/14 05:14:01;;;;;;;14.10;10.50;;;19.50;99.90;;;;;;4954590;28;20439;-68
2021/08/14 05:16:28;;;;;;;14.20;10.98;;;19.60;99.90;;;;;;4955015;28;20055;-68
2021/08/14 05:18:56;;;;;;;18.15;11.43;;;19.70;99.90;;;;;;4919288;29;20040;-68
2021/08/14 05:21:23;;;;;;;17.08;11.02;;;19.80;99.90;;;;;;4942969;28;20047;-68
2021/08/14 05:23:50;;;;;;;14.63;11.18;;;19.90;99.90;;;;;;4958674;28;20046;-68
2021/08/14 05:26:17;;;;;;;13.43;11.23;;;19.90;99.90;;;;;;4935764;28;20554;-68
2021/08/14 05:28:45;;;;;;;13.48;10.85;;;20.00;99.90;;;;;;4953758;28;20424;-68
2021/08/14 05:31:12;;;;;;;14.93;11.68;;;20.10;99.90;;;;;;4936828;28;20046;-68
2021/08/14 05:33:39;;;;;;;17.27;12.40;;;20.20;99.90;;;;;;4952540;28;20043;-69
2021/08/14 05:36:09;;;;;;;16.40;11.85;;;20.20;99.90;;;;;;4922128;28;20053;-68
2021/08/14 05:38:37;;;;;;;16.35;11.95;;;20.40;99.90;;;;;;4951738;28;20047;-68
2021/08/14 05:41:06;;;;;;;17.20;13.68;;;20.40;99.90;;;;;;4927497;28;20054;-68
2021/08/14 05:43:33;;;;;;;17.30;12.30;;;20.40;99.90;;;;;;4952905;28;20051;-68
2021/08/14 05:46:01;;;;;;;18.02;13.73;;;20.50;99.90;;;;;;4953701;28;20098;-68
2021/08/14 05:48:28;;;;;;;14.30;11.20;;;20.60;99.90;;;;;;4955066;28;20043;-68
2021/08/14 05:50:55;;;;;;;17.00;11.02;;;20.70;99.90;;;;;;4952408;28;20082;-68
2021/08/14 05:53:23;;;;;;;15.88;11.57;;;20.70;99.90;;;;;;4959163;28;20042;-68
2021/08/14 05:55:50;;;;;;;16.27;12.57;;;20.80;99.90;;;;;;4959828;28;20089;-68
2021/08/14 05:58:17;;;;;;;16.35;13.43;;;20.80;99.90;;;;;;4956050;28;20497;-68
2021/08/14 06:00:44;;;;;;;15.93;11.80;;;20.90;99.90;;;;;;4941907;28;20120;-68
2021/08/14 06:03:12;;;;;;;16.25;11.77;;;20.90;99.90;;;;;;4931770;29;20071;-68
2021/08/14 06:05:40;;;;;;;14.90;11.40;;;21.00;99.90;;;;;;4947382;28;20435;-68
2021/08/14 06:08:07;;;;;;;14.73;11.57;;;21.00;99.90;;;;;;4961568;28;20107;-68
2021/08/14 06:10:34;;;;;;;16.65;12.00;;;21.10;99.90;;;;;;4950040;28;20043;-68
2021/08/14 06:13:02;;;;;;;16.08;11.85;;;21.10;99.90;;;;;;4953648;28;20140;-68
2021/08/14 06:15:29;;;;;;;13.75;10.27;;;21.20;99.90;;;;;;4921307;29;20055;-68
2021/08/14 06:17:56;;;;;;;15.90;11.48;;;21.20;99.90;;;;;;4953588;28;20123;-69
2021/08/14 06:20:24;;;;;;;14.23;11.65;;;21.30;99.90;;;;;;4947577;28;20470;-68
2021/08/14 06:22:51;;;;;;;17.05;13.05;;;21.40;99.90;;;;;;4952043;28;20053;-68
2021/08/14 06:25:19;;;;;;;14.45;11.45;;;21.40;99.90;;;;;;4937180;29;20558;-68
2021/08/14 06:27:46;;;;;;;15.10;11.93;;;21.40;99.90;;;;;;4919081;29;20070;-68
2021/08/14 06:30:14;;;;;;;18.33;12.32;;;21.40;99.90;;;;;;4952574;28;20035;-68
2021/08/14 06:32:41;;;;;;;18.50;12.73;;;21.50;99.90;;;;;;4946795;28;20040;-68
2021/08/14 06:35:10;;;;;;;15.23;13.20;;;21.60;99.90;;;;;;4954631;28;20043;-68
2021/08/14 06:37:44;;;;;;;19.90;13.07;;;21.60;99.90;;;;;;4937408;29;20522;-68
2021/08/14 06:40:13;;;;;;;15.18;11.57;;;21.70;99.90;;;;;;4955338;28;20054;-68
2021/08/14 06:42:40;;;;;;;17.48;13.93;;;21.70;99.90;;;;;;4930604;29;20055;-68
2021/08/14 06:45:09;;;;;;;18.52;14.05;;;21.80;99.90;;;;;;4954115;28;20118;-68
2021/08/14 06:47:38;;;;;;;18.90;13.75;;;21.90;99.90;;;;;;4942844;28;20357;-68
2021/08/14 06:50:06;;;;;;;20.23;14.48;;;22.00;99.90;;;;;;4936496;29;20410;-68
2021/08/14 06:52:35;;;;;;;19.75;15.40;;;22.00;99.90;;;;;;4953195;28;20047;-68
2021/08/14 06:55:06;;;;;;;19.95;14.60;;;22.10;99.90;;;;;;4952061;28;20047;-68
2021/08/14 06:57:33;;;;;;;15.55;12.65;;;22.00;99.90;;;;;;4934453;28;20407;-68
2021/08/14 07:00:00;;;;;;;18.83;13.48;;;22.10;99.90;;;;;;4943342;28;20050;-67
2021/08/14 07:02:28;;;;;;;19.92;13.40;;;22.10;99.90;;;;;;4952339;28;20040;-68
2021/08/14 07:04:55;;;;;;;16.70;12.88;;;22.10;99.90;;;;;;4939458;28;20054;-68
2021/08/14 07:07:23;;;;;;;17.50;13.40;;;22.20;99.90;;;;;;4957879;28;20070;-68
2021/08/14 07:09:51;;;;;;;16.00;12.93;;;22.30;99.90;;;;;;4952966;28;20043;-68
2021/08/14 07:12:19;;;;;;;15.80;11.30;;;22.40;99.90;;;;;;4952368;28;20058;-68
2021/08/14 07:14:46;;;;;;;17.33;11.93;;;22.50;99.90;;;;;;4958883;28;20123;-68
2021/08/14 07:17:13;;;;;;;17.38;13.70;;;22.60;99.90;;;;;;4941909;28;20046;-68
2021/08/14 07:19:40;;;;;;;18.85;14.23;;;22.60;99.90;;;;;;4935924;28;20043;-68
2021/08/14 07:22:08;;;;;;;21.88;16.95;;;22.60;99.90;;;;;;4935634;29;20058;-70
2021/08/14 07:24:35;;;;;;;17.80;13.38;;;22.70;99.90;;;;;;4948369;28;20066;-67
2021/08/14 07:27:02;;;;;;;20.65;16.15;;;22.80;99.90;;;;;;4935146;28;20133;-68
2021/08/14 07:29:30;;;;;;;17.98;13.60;;;22.90;99.90;;;;;;4952362;28;20047;-67
2021/08/14 07:31:57;;;;;;;21.27;13.65;;;23.00;99.90;;;;;;4951592;28;20047;-67
2021/08/14 07:34:24;;;;;;;17.67;13.32;;;23.10;99.90;;;;;;4952060;28;20050;-69
2021/08/14 07:36:52;;;;;;;19.30;13.57;;;23.20;99.90;;;;;;4946350;28;20553;-67
2021/08/14 07:39:19;;;;;;;16.25;12.27;;;23.30;99.90;;;;;;4928104;29;20533;-68
2021/08/14 07:41:46;;;;;;;16.27;12.05;;;23.40;99.90;;;;;;4937226;28;20049;-68
2021/08/14 07:44:14;;;;;;;21.10;14.77;;;23.50;99.90;;;;;;4960891;28;20114;-68
2021/08/14 07:46:48;;;;;;;23.73;15.73;;;23.50;99.90;;;;;;4950340;28;20066;-67
2021/08/14 07:49:15;;;;;;;22.55;14.93;;;23.70;99.90;;;;;;4942750;28;20036;-67
2021/08/14 07:51:42;;;;;;;21.20;15.68;;;23.60;99.90;;;;;;4949438;28;20048;-67
2021/08/14 07:54:10;;;;;;;17.50;14.23;;;23.60;99.90;;;;;;4959504;28;20417;-67
2021/08/14 07:56:37;;;;;;;20.55;13.60;;;23.70;99.90;;;;;;4950059;28;20043;-67
2021/08/14 07:59:05;;;;;;;19.02;13.45;;;23.80;99.90;;;;;;4950322;28;20066;-68
2021/08/14 08:01:32;;;;;;;20.87;14.37;;;23.80;99.90;;;;;;4909244;28;1159572;-67
2021/08/14 08:04:00;;;;;;;18.90;13.27;;;23.90;99.90;;;;;;4932138;28;20054;-68
2021/08/14 08:06:29;;;;;;;18.88;12.25;;;23.90;99.90;;;;;;4953190;28;20051;-67
2021/08/14 08:08:57;;;;;;;17.92;13.13;;;24.00;99.90;;;;;;4933793;28;20090;-68
2021/08/14 08:11:24;;;;;;;15.82;10.60;;;24.10;99.90;;;;;;4952263;28;20047;-67
2021/08/14 08:13:51;;;;;;;19.02;13.30;;;24.20;99.90;;;;;;4951373;28;20122;-67
2021/08/14 08:16:18;;;;;;;17.10;13.68;;;24.40;99.90;;;;;;4947051;28;20150;-67
2021/08/14 08:18:47;;;;;;;14.75;11.60;;;24.40;99.90;;;;;;4956609;28;20675;-67
2021/08/14 08:21:14;;;;;;;18.70;15.23;;;24.40;99.90;;;;;;4949862;28;20422;-67
2021/08/14 08:23:41;;;;;;;18.00;12.93;;;24.60;99.90;;;;;;4961170;28;20463;-68
2021/08/14 08:26:09;;;;;;;18.92;12.68;;;24.60;99.90;;;;;;4943564;28;20054;-67
2021/08/14 08:28:36;;;;;;;16.17;12.40;;;24.70;99.90;;;;;;4952421;28;20046;-67
2021/08/14 08:31:03;;;;;;;14.93;11.18;;;24.90;99.90;;;;;;4935228;29;20054;-67
2021/08/14 08:33:30;;;;;;;16.80;12.65;;;25.00;99.90;;;;;;4946580;28;20040;-68
2021/08/14 08:35:58;;;;;;;15.77;12.02;;;25.00;99.90;;;;;;4946488;28;20042;-68
2021/08/14 08:38:27;;;;;;;17.92;12.13;;;25.10;99.90;;;;;;4949983;28;20082;-67
2021/08/14 08:40:55;;;;;;;19.60;14.02;;;25.10;99.90;;;;;;4940369;29;20035;-67
2021/08/14 08:43:22;;;;;;;21.67;12.82;;;25.10;99.90;;;;;;4951926;28;20103;-68
2021/08/14 08:45:50;;;;;;;16.67;11.57;;;25.10;99.90;;;;;;4944647;28;20054;-68
2021/08/14 08:48:19;;;;;;;13.82;11.15;;;25.20;99.90;;;;;;4948685;28;20057;-68
2021/08/14 08:50:47;;;;;;;21.15;12.38;;;25.30;99.90;;;;;;4950159;28;20081;-68
2021/08/14 08:53:15;;;;;;;19.70;12.02;;;25.50;99.90;;;;;;4951393;28;20039;-68
2021/08/14 08:55:42;;;;;;;11.57;10.10;;;25.60;99.90;;;;;;4935316;29;20162;-69
2021/08/14 08:58:10;;;;;;;14.43;10.45;;;25.70;99.90;;;;;;4951241;28;20071;-68
2021/08/14 09:00:37;;;;;;;11.93;9.50;;;25.90;99.90;;;;;;4935731;28;20070;-69
2021/08/14 09:03:11;;;;;;;15.13;10.20;;;26.00;99.90;;;;;;4938408;28;20458;-69
2021/08/14 09:05:48;;;;;;;13.55;10.35;;;26.20;99.90;;;;;;4924184;28;20446;-68
2021/08/14 09:08:16;;;;;;;16.73;10.00;;;26.20;99.90;;;;;;4953933;28;20066;-68
2021/08/14 09:10:43;;;;;;;14.45;9.50;;;26.20;99.90;;;;;;4961935;28;20039;-67
2021/08/14 09:13:21;;;;;;;12.88;9.82;;;26.20;99.90;;;;;;4957230;28;20459;-68
2021/08/14 09:15:48;;;;;;;16.50;9.68;;;26.20;99.90;;;;;;4954023;28;20410;-68
2021/08/14 09:18:16;;;;;;;14.93;9.63;;;26.20;99.90;;;;;;4958887;28;20410;-68
2021/08/14 09:20:53;;;;;;;11.55;8.35;;;26.40;99.90;;;;;;4954633;28;20047;-68
2021/08/14 09:23:23;;;;;;;14.75;8.68;;;26.50;99.90;;;;;;4956866;28;20050;-69
2021/08/14 09:25:56;;;;;;;13.88;8.32;;;26.50;99.90;;;;;;4939287;29;20532;-67
2021/08/14 09:28:39;;;;;;;13.38;8.82;;;26.50;99.90;;;;;;4951757;29;20047;-68
2021/08/14 09:31:07;;;;;;;13.57;8.20;;;26.60;99.90;;;;;;4937767;29;20509;-68
2021/08/14 09:33:37;;;;;;;13.20;9.45;;;26.70;99.90;;;;;;4910254;29;20048;-68
2021/08/14 09:36:09;;;;;;;13.05;8.70;;;27.00;99.90;;;;;;4959705;28;20035;-68
2021/08/14 09:38:42;;;;;;;16.27;9.30;;;27.30;99.90;;;;;;4955273;29;20538;-67
2021/08/14 09:41:23;;;;;;;10.57;8.45;;;27.30;99.90;;;;;;4955516;28;20383;-68
2021/08/14 09:43:53;;;;;;;12.20;9.02;;;27.50;99.90;;;;;;4954096;28;20081;-68
2021/08/14 09:46:21;;;;;;;12.63;8.85;;;27.60;99.90;;;;;;4963209;28;20462;-68
2021/08/14 09:48:55;;;;;;;12.05;9.02;;;27.50;99.90;;;;;;4953530;28;20036;-68
2021/08/14 09:51:31;;;;;;;14.13;9.55;;;27.60;99.90;;;;;;4941130;28;20441;-69
2021/08/14 09:54:01;;;;;;;13.45;8.77;;;27.50;99.90;;;;;;4961513;28;20043;-68
2021/08/14 09:56:32;;;;;;;14.02;9.65;;;27.40;99.90;;;;;;4954118;28;20510;-69
2021/08/14 09:59:00;;;;;;;12.15;8.20;;;27.40;99.90;;;;;;4916410;29;20050;-69
2021/08/14 10:01:35;;;;;;;11.52;8.77;;;27.60;99.90;;;;;;4952829;28;20043;-69
2021/08/14 10:04:04;;;;;;;10.73;8.32;;;27.80;99.90;;;;;;4946011;28;20052;-69
2021/08/14 10:06:32;;;;;;;13.13;9.02;;;28.10;99.90;;;;;;4959671;28;20051;-68
2021/08/14 10:09:00;;;;;;;11.32;8.55;;;28.30;99.90;;;;;;4936156;28;20409;-69
2021/08/14 10:11:27;;;;;;;11.77;8.27;;;28.40;99.90;;;;;;4953595;28;20058;-69
2021/08/14 10:13:54;;;;;;;10.75;8.05;;;28.30;99.90;;;;;;4954275;28;20126;-69
2021/08/14 10:16:22;;;;;;;11.35;7.90;;;28.30;99.90;;;;;;4953640;28;20051;-69
2021/08/14 10:18:52;;;;;;;9.85;7.68;;;28.20;99.90;;;;;;4954281;28;20039;-69
2021/08/14 10:21:24;;;;;;;9.45;7.95;;;28.30;99.90;;;;;;4955043;28;20047;-69
2021/08/14 10:23:55;;;;;;;11.35;7.25;;;28.30;99.90;;;;;;4941105;28;20122;-69
2021/08/14 10:26:29;;;;;;;13.30;8.07;;;28.50;99.90;;;;;;4954364;28;20051;-69
2021/08/14 10:28:57;;;;;;;12.65;7.82;;;28.50;99.90;;;;;;4948251;28;20103;-68
2021/08/14 10:31:31;;;;;;;10.20;6.88;;;28.50;99.90;;;;;;4958398;28;20433;-69
2021/08/14 10:34:19;;;;;;;9.77;6.85;;;28.40;99.90;;;;;;4949659;28;20047;-69
2021/08/14 10:36:48;;;;;;;9.18;6.95;;;28.50;99.90;;;;;;4954058;28;20054;-68
2021/08/14 10:39:18;;;;;;;11.98;6.95;;;28.60;99.90;;;;;;4953117;28;20045;-68
2021/08/14 10:41:50;;;;;;;10.40;6.85;;;28.60;99.90;;;;;;4959997;28;20135;-68
2021/08/14 10:44:46;;;;;;;9.10;6.78;;;28.70;99.90;;;;;;4937623;28;20458;-68
2021/08/14 10:47:33;;;;;;;8.20;6.22;;;29.00;99.90;;;;;;4939790;28;20055;-69
2021/08/14 10:50:00;;;;;;;8.55;6.13;;;29.30;99.90;;;;;;4954268;28;20043;-68
2021/08/14 10:52:33;;;;;;;10.50;7.45;;;29.70;99.90;;;;;;4950787;28;20512;-68
2021/08/14 10:55:05;;;;;;;8.10;6.57;;;29.90;99.90;;;;;;4942528;28;20053;-68
2021/08/14 10:57:37;;;;;;;7.97;5.68;;;29.80;99.90;;;;;;4955290;28;20051;-68
2021/08/14 11:00:25;;;;;;;11.10;6.43;;;29.60;99.90;;;;;;4953900;28;20032;-69
2021/08/14 11:03:07;;;;;;;8.75;6.05;;;29.70;99.90;;;;;;4933240;28;20586;-69
2021/08/14 11:05:36;;;;;;;8.10;5.28;;;29.90;99.90;;;;;;4952729;28;20043;-68
2021/08/14 11:08:30;;;;;;;7.88;5.40;;;30.00;99.90;;;;;;4955639;28;20058;-68
2021/08/14 11:10:58;;;;;;;10.63;6.05;;;29.90;99.90;;;;;;4947340;28;20512;-68
2021/08/14 11:13:31;;;;;;;7.15;5.18;;;29.80;99.90;;;;;;4953141;28;20449;-68
2021/08/14 11:15:59;;;;;;;9.20;5.57;;;29.60;99.90;;;;;;4952371;28;20642;-68
2021/08/14 11:18:55;;;;;;;8.35;5.50;;;29.80;99.90;;;;;;4953512;28;20043;-68
2021/08/14 11:21:45;;;;;;;10.20;6.20;;;30.10;99.90;;;;;;4944790;28;20122;-68
2021/08/14 11:24:38;;;;;;;9.70;6.00;;;30.40;99.90;;;;;;4940857;28;20101;-68
2021/08/14 11:27:26;;;;;;;11.63;5.65;;;30.50;99.90;;;;;;4952820;28;20035;-68
2021/08/14 11:30:00;;;;;;;8.63;5.78;;;30.60;99.90;;;;;;4953674;28;20054;-69
2021/08/14 11:32:28;;;;;;;9.50;5.32;;;30.70;99.90;;;;;;4935381;28;20380;-68
2021/08/14 11:34:57;;;;;;;12.07;5.72;;;30.70;99.90;;;;;;4950424;28;20053;-68
2021/08/14 11:37:25;;;;;;;9.48;5.60;;;30.80;99.90;;;;;;4955819;28;20122;-68
2021/08/14 11:40:00;;;;;;;8.07;5.65;;;30.90;99.90;;;;;;4955344;28;20045;-68
2021/08/14 11:42:31;;;;;;;9.10;5.20;;;31.20;99.90;;;;;;4935659;28;20168;-68
2021/08/14 11:45:00;;;;;;;7.07;5.20;;;31.30;99.90;;;;;;4953946;28;20050;-68
2021/08/14 11:47:36;;;;;;;7.35;4.47;;;31.20;99.90;;;;;;4933928;29;20071;-68
2021/08/14 11:50:08;;;;;;;7.85;5.13;;;31.40;99.90;;;;;;4958358;28;20371;-68
2021/08/14 11:52:37;;;;;;;6.10;4.47;;;32.10;99.90;;;;;;4935030;28;20102;-68
2021/08/14 11:55:10;;;;;;;6.55;5.05;;;32.40;99.90;;;;;;4952495;28;20352;-68
2021/08/14 11:57:42;;;;;;;9.85;5.07;;;32.80;99.90;;;;;;4935116;28;20570;-68
2021/08/14 12:00:26;;;;;;;7.93;4.97;;;33.00;98.90;;;;;;4934383;28;20039;-68
2021/08/14 12:03:04;;;;;;;8.02;4.97;;;32.70;98.90;;;;;;4960014;28;20540;-68
2021/08/14 12:05:33;;;;;;;9.27;5.55;;;33.00;98.40;;;;;;4926807;28;20058;-68
2021/08/14 12:08:01;;;;;;;6.80;4.93;;;33.40;97.30;;;;;;4967166;28;20070;-68
2021/08/14 12:10:29;;;;;;;6.95;4.30;;;33.60;96.80;;;;;;4934566;29;20047;-68
2021/08/14 12:13:07;;;;;;;8.30;6.13;;;34.10;96.30;;;;;;4951849;28;20062;-68
2021/08/14 12:16:17;;;;;;;6.72;4.15;;;34.40;95.30;;;;;;4934441;28;20529;-68
2021/08/14 12:18:49;;;;;;;8.98;4.45;;;34.30;92.30;;;;;;4949819;28;20047;-68
2021/08/14 12:21:19;;;;;;;5.53;4.20;;;33.80;92.50;;;;;;4934482;28;20511;-68
2021/08/14 12:24:02;;;;;;;6.45;4.43;;;33.90;91.80;;;;;;4945868;28;20055;-67
2021/08/14 12:26:29;;;;;;;6.20;3.60;;;34.10;91.60;;;;;;4951543;28;20047;-68
2021/08/14 12:29:11;;;;;;;5.50;4.03;;;34.30;91.10;;;;;;4951730;28;20066;-68
2021/08/14 12:31:50;;;;;;;6.63;4.20;;;34.70;89.70;;;;;;4951971;28;20470;-68
2021/08/14 12:34:24;;;;;;;6.95;4.07;;;35.00;89.10;;;;;;4950704;28;20409;-68
2021/08/14 12:37:08;;;;;;;6.25;4.15;;;34.40;87.80;;;;;;4954979;28;20134;-68
2021/08/14 12:39:51;;;;;;;5.82;4.18;;;34.00;86.90;;;;;;4953296;28;20528;-68
2021/08/14 12:42:20;;;;;;;6.70;4.43;;;34.10;86.50;;;;;;4962147;28;20067;-68